sensor_id;sensor_type;location;lat;lon;timestamp;temperature;humidity
65064;DHT22;51654;51.452;6.644;2022-12-11T00:01:19;-1.10;83.20
65064;DHT22;51654;51.452;6.644;2022-12-11T00:03:46;-1.10;83.40
65064;DHT22;51654;51.452;6.644;2022-12-11T00:06:15;-1.00;83.50
65064;DHT22;51654;51.452;6.644;2022-12-11T00:08:42;-1.00;83.40
65064;DHT22;51654;51.452;6.644;2022-12-11T00:11:13;-1.00;83.30
65064;DHT22;51654;51.452;6.644;2022-12-11T00:13:40;-0.90;83.60
65064;DHT22;51654;51.452;6.644;2022-12-11T00:16:07;-0.90;83.50
65064;DHT22;51654;51.452;6.644;2022-12-11T00:18:34;-0.90;83.40
65064;DHT22;51654;51.452;6.644;2022-12-11T00:21:05;-1.00;83.30
65064;DHT22;51654;51.452;6.644;2022-12-11T00:23:35;-1.00;83.30
65064;DHT22;51654;51.452;6.644;2022-12-11T00:26:06;-1.00;83.20
65064;DHT22;51654;51.452;6.644;2022-12-11T00:28:33;-1.10;83.30
65064;DHT22;51654;51.452;6.644;2022-12-11T00:31:04;-1.10;83.20
65064;DHT22;51654;51.452;6.644;2022-12-11T00:33:31;-1.10;83.30
65064;DHT22;51654;51.452;6.644;2022-12-11T00:35:59;-1.10;83.20
65064;DHT22;51654;51.452;6.644;2022-12-11T00:38:26;-1.10;83.10
65064;DHT22;51654;51.452;6.644;2022-12-11T00:40:56;-1.10;83.30
65064;DHT22;51654;51.452;6.644;2022-12-11T00:43:23;-1.10;83.20
65064;DHT22;51654;51.452;6.644;2022-12-11T00:45:50;-1.10;83.30
65064;DHT22;51654;51.452;6.644;2022-12-11T00:48:17;-1.10;83.10
65064;DHT22;51654;51.452;6.644;2022-12-11T00:50:43;-1.10;83.10
65064;DHT22;51654;51.452;6.644;2022-12-11T00:53:10;-1.10;83.00
65064;DHT22;51654;51.452;6.644;2022-12-11T00:55:37;-1.10;83.00
65064;DHT22;51654;51.452;6.644;2022-12-11T00:58:05;-1.20;82.90
65064;DHT22;51654;51.452;6.644;2022-12-11T01:00:32;-1.20;82.80
65064;DHT22;51654;51.452;6.644;2022-12-11T01:02:59;-1.30;82.90
65064;DHT22;51654;51.452;6.644;2022-12-11T01:05:26;-1.20;83.30
65064;DHT22;51654;51.452;6.644;2022-12-11T01:07:53;-1.20;83.10
65064;DHT22;51654;51.452;6.644;2022-12-11T01:10:20;-1.20;83.00
65064;DHT22;51654;51.452;6.644;2022-12-11T01:15:19;-1.20;83.10
65064;DHT22;51654;51.452;6.644;2022-12-11T01:17:48;-1.20;83.10
65064;DHT22;51654;51.452;6.644;2022-12-11T01:20:17;-1.20;83.20
65064;DHT22;51654;51.452;6.644;2022-12-11T01:22:44;-1.10;83.30
65064;DHT22;51654;51.452;6.644;2022-12-11T01:25:11;-1.10;83.10
65064;DHT22;51654;51.452;6.644;2022-12-11T01:27:38;-1.00;83.30
65064;DHT22;51654;51.452;6.644;2022-12-11T01:30:06;-1.00;83.10
65064;DHT22;51654;51.452;6.644;2022-12-11T01:32:34;-1.10;83.00
65064;DHT22;51654;51.452;6.644;2022-12-11T01:35:04;-1.10;83.00
65064;DHT22;51654;51.452;6.644;2022-12-11T01:37:31;-1.10;83.00
65064;DHT22;51654;51.452;6.644;2022-12-11T01:39:59;-1.10;82.90
65064;DHT22;51654;51.452;6.644;2022-12-11T01:42:26;-1.10;82.90
65064;DHT22;51654;51.452;6.644;2022-12-11T01:47:40;-1.10;82.90
65064;DHT22;51654;51.452;6.644;2022-12-11T01:50:06;-1.10;82.90
65064;DHT22;51654;51.452;6.644;2022-12-11T01:52:33;-1.10;82.90
65064;DHT22;51654;51.452;6.644;2022-12-11T01:55:00;-1.20;82.80
65064;DHT22;51654;51.452;6.644;2022-12-11T01:57:27;-1.20;82.90
65064;DHT22;51654;51.452;6.644;2022-12-11T01:59:54;-1.20;82.90
65064;DHT22;51654;51.452;6.644;2022-12-11T02:02:22;-1.20;83.00
65064;DHT22;51654;51.452;6.644;2022-12-11T02:04:50;-1.20;82.90
65064;DHT22;51654;51.452;6.644;2022-12-11T02:07:17;-1.20;82.90
65064;DHT22;51654;51.452;6.644;2022-12-11T02:09:44;-1.20;82.90
65064;DHT22;51654;51.452;6.644;2022-12-11T02:12:24;-1.20;82.90
65064;DHT22;51654;51.452;6.644;2022-12-11T02:23:29;-1.20;82.90
65064;DHT22;51654;51.452;6.644;2022-12-11T02:28:33;-1.10;83.00
65064;DHT22;51654;51.452;6.644;2022-12-11T02:31:04;-1.10;83.00
65064;DHT22;51654;51.452;6.644;2022-12-11T02:33:34;-1.10;82.90
65064;DHT22;51654;51.452;6.644;2022-12-11T02:36:02;-1.10;82.80
65064;DHT22;51654;51.452;6.644;2022-12-11T02:38:32;-1.10;82.80
65064;DHT22;51654;51.452;6.644;2022-12-11T02:41:00;-1.10;82.80
65064;DHT22;51654;51.452;6.644;2022-12-11T02:43:28;-1.10;82.80
65064;DHT22;51654;51.452;6.644;2022-12-11T02:45:56;-1.00;82.80
65064;DHT22;51654;51.452;6.644;2022-12-11T02:48:24;-1.00;82.80
65064;DHT22;51654;51.452;6.644;2022-12-11T02:50:52;-1.00;82.80
65064;DHT22;51654;51.452;6.644;2022-12-11T02:53:21;-1.00;82.90
65064;DHT22;51654;51.452;6.644;2022-12-11T02:55:51;-1.00;82.70
65064;DHT22;51654;51.452;6.644;2022-12-11T02:58:21;-1.10;82.70
65064;DHT22;51654;51.452;6.644;2022-12-11T03:00:49;-1.10;82.80
65064;DHT22;51654;51.452;6.644;2022-12-11T03:03:15;-1.00;82.90
65064;DHT22;51654;51.452;6.644;2022-12-11T03:05:42;-1.00;82.90
65064;DHT22;51654;51.452;6.644;2022-12-11T03:08:09;-1.00;82.60
65064;DHT22;51654;51.452;6.644;2022-12-11T03:10:36;-1.00;82.70
65064;DHT22;51654;51.452;6.644;2022-12-11T03:13:03;-0.90;82.90
65064;DHT22;51654;51.452;6.644;2022-12-11T03:15:32;-0.90;82.80
65064;DHT22;51654;51.452;6.644;2022-12-11T03:18:06;-0.90;82.70
65064;DHT22;51654;51.452;6.644;2022-12-11T03:20:36;-0.90;82.70
65064;DHT22;51654;51.452;6.644;2022-12-11T03:25:40;-0.90;82.90
65064;DHT22;51654;51.452;6.644;2022-12-11T03:28:12;-0.80;83.00
65064;DHT22;51654;51.452;6.644;2022-12-11T03:30:41;-0.70;83.00
65064;DHT22;51654;51.452;6.644;2022-12-11T03:33:10;-0.70;82.80
65064;DHT22;51654;51.452;6.644;2022-12-11T03:35:39;-0.70;82.40
65064;DHT22;51654;51.452;6.644;2022-12-11T03:38:07;-0.70;82.40
65064;DHT22;51654;51.452;6.644;2022-12-11T03:40:35;-0.70;82.40
65064;DHT22;51654;51.452;6.644;2022-12-11T03:43:03;-0.70;82.40
65064;DHT22;51654;51.452;6.644;2022-12-11T03:45:30;-0.70;82.10
65064;DHT22;51654;51.452;6.644;2022-12-11T03:47:58;-0.70;82.10
65064;DHT22;51654;51.452;6.644;2022-12-11T03:50:26;-0.70;82.30
65064;DHT22;51654;51.452;6.644;2022-12-11T03:52:53;-0.70;82.20
65064;DHT22;51654;51.452;6.644;2022-12-11T03:55:20;-0.70;82.10
65064;DHT22;51654;51.452;6.644;2022-12-11T03:57:48;-0.80;82.10
65064;DHT22;51654;51.452;6.644;2022-12-11T04:00:16;-0.70;82.30
65064;DHT22;51654;51.452;6.644;2022-12-11T04:02:44;-0.60;82.30
65064;DHT22;51654;51.452;6.644;2022-12-11T04:05:39;-0.60;82.50
65064;DHT22;51654;51.452;6.644;2022-12-11T04:08:06;-0.60;82.30
65064;DHT22;51654;51.452;6.644;2022-12-11T04:10:33;-0.60;82.30
65064;DHT22;51654;51.452;6.644;2022-12-11T04:12:59;-0.60;82.20
65064;DHT22;51654;51.452;6.644;2022-12-11T04:15:26;-0.60;82.00
65064;DHT22;51654;51.452;6.644;2022-12-11T04:17:53;-0.60;81.80
65064;DHT22;51654;51.452;6.644;2022-12-11T04:20:51;-0.60;81.90
65064;DHT22;51654;51.452;6.644;2022-12-11T04:23:36;-0.60;81.90
65064;DHT22;51654;51.452;6.644;2022-12-11T04:26:22;-0.60;81.90
65064;DHT22;51654;51.452;6.644;2022-12-11T04:28:49;-0.60;81.70
65064;DHT22;51654;51.452;6.644;2022-12-11T04:31:17;-0.70;81.60
65064;DHT22;51654;51.452;6.644;2022-12-11T04:33:44;-0.70;81.60
65064;DHT22;51654;51.452;6.644;2022-12-11T04:36:11;-0.70;81.70
65064;DHT22;51654;51.452;6.644;2022-12-11T04:38:38;-0.70;81.60
65064;DHT22;51654;51.452;6.644;2022-12-11T04:41:14;-0.70;82.00
65064;DHT22;51654;51.452;6.644;2022-12-11T04:43:41;-0.70;81.60
65064;DHT22;51654;51.452;6.644;2022-12-11T04:46:15;-0.70;81.50
65064;DHT22;51654;51.452;6.644;2022-12-11T04:48:43;-0.70;81.60
65064;DHT22;51654;51.452;6.644;2022-12-11T04:51:10;-0.70;81.80
65064;DHT22;51654;51.452;6.644;2022-12-11T04:53:37;-0.70;81.70
65064;DHT22;51654;51.452;6.644;2022-12-11T04:56:04;-0.70;81.60
65064;DHT22;51654;51.452;6.644;2022-12-11T04:58:31;-0.70;81.50
65064;DHT22;51654;51.452;6.644;2022-12-11T05:00:58;-0.70;81.40
65064;DHT22;51654;51.452;6.644;2022-12-11T05:03:25;-0.70;81.30
65064;DHT22;51654;51.452;6.644;2022-12-11T05:05:52;-0.80;81.30
65064;DHT22;51654;51.452;6.644;2022-12-11T05:08:19;-0.70;81.40
65064;DHT22;51654;51.452;6.644;2022-12-11T05:10:59;-0.70;81.50
65064;DHT22;51654;51.452;6.644;2022-12-11T05:13:27;-0.70;81.40
65064;DHT22;51654;51.452;6.644;2022-12-11T05:15:54;-0.70;81.50
65064;DHT22;51654;51.452;6.644;2022-12-11T05:18:21;-0.70;81.30
65064;DHT22;51654;51.452;6.644;2022-12-11T05:20:58;-0.70;81.20
65064;DHT22;51654;51.452;6.644;2022-12-11T05:23:25;-0.70;81.60
65064;DHT22;51654;51.452;6.644;2022-12-11T05:25:52;-0.60;81.50
65064;DHT22;51654;51.452;6.644;2022-12-11T05:28:21;-0.60;81.30
65064;DHT22;51654;51.452;6.644;2022-12-11T05:30:48;-0.60;81.30
65064;DHT22;51654;51.452;6.644;2022-12-11T05:33:14;-0.60;81.30
65064;DHT22;51654;51.452;6.644;2022-12-11T05:35:45;-0.60;81.30
65064;DHT22;51654;51.452;6.644;2022-12-11T05:38:12;-0.60;81.30
65064;DHT22;51654;51.452;6.644;2022-12-11T05:40:39;-0.50;81.20
65064;DHT22;51654;51.452;6.644;2022-12-11T05:43:06;-0.60;80.90
65064;DHT22;51654;51.452;6.644;2022-12-11T05:45:32;-0.60;80.90
65064;DHT22;51654;51.452;6.644;2022-12-11T05:47:59;-0.60;80.80
65064;DHT22;51654;51.452;6.644;2022-12-11T05:50:26;-0.60;80.80
65064;DHT22;51654;51.452;6.644;2022-12-11T05:52:53;-0.70;80.80
65064;DHT22;51654;51.452;6.644;2022-12-11T05:55:19;-0.70;80.90
65064;DHT22;51654;51.452;6.644;2022-12-11T05:57:46;-0.60;81.00
65064;DHT22;51654;51.452;6.644;2022-12-11T06:00:13;-0.60;81.00
65064;DHT22;51654;51.452;6.644;2022-12-11T06:02:40;-0.60;80.90
65064;DHT22;51654;51.452;6.644;2022-12-11T06:05:07;-0.50;80.90
65064;DHT22;51654;51.452;6.644;2022-12-11T06:07:34;-0.60;80.70
65064;DHT22;51654;51.452;6.644;2022-12-11T06:10:00;-0.60;80.70
65064;DHT22;51654;51.452;6.644;2022-12-11T06:12:27;-0.60;80.60
65064;DHT22;51654;51.452;6.644;2022-12-11T06:14:55;-0.60;80.70
65064;DHT22;51654;51.452;6.644;2022-12-11T06:17:22;-0.60;80.70
65064;DHT22;51654;51.452;6.644;2022-12-11T06:19:48;-0.50;80.50
65064;DHT22;51654;51.452;6.644;2022-12-11T06:22:15;-0.60;80.60
65064;DHT22;51654;51.452;6.644;2022-12-11T06:24:42;-0.60;80.60
65064;DHT22;51654;51.452;6.644;2022-12-11T06:27:08;-0.60;80.50
65064;DHT22;51654;51.452;6.644;2022-12-11T06:29:35;-0.60;80.60
65064;DHT22;51654;51.452;6.644;2022-12-11T06:32:02;-0.60;80.70
65064;DHT22;51654;51.452;6.644;2022-12-11T06:34:29;-0.50;80.70
65064;DHT22;51654;51.452;6.644;2022-12-11T06:36:55;-0.60;80.50
65064;DHT22;51654;51.452;6.644;2022-12-11T06:39:22;-0.60;80.40
65064;DHT22;51654;51.452;6.644;2022-12-11T06:41:49;-0.60;80.40
65064;DHT22;51654;51.452;6.644;2022-12-11T06:44:16;-0.70;80.40
65064;DHT22;51654;51.452;6.644;2022-12-11T06:46:42;-0.70;80.40
65064;DHT22;51654;51.452;6.644;2022-12-11T06:49:09;-0.70;80.60
65064;DHT22;51654;51.452;6.644;2022-12-11T06:51:36;-0.60;80.80
65064;DHT22;51654;51.452;6.644;2022-12-11T06:54:03;-0.60;80.80
65064;DHT22;51654;51.452;6.644;2022-12-11T06:56:29;-0.60;80.70
65064;DHT22;51654;51.452;6.644;2022-12-11T06:58:56;-0.60;80.50
65064;DHT22;51654;51.452;6.644;2022-12-11T07:01:29;-0.60;80.50
65064;DHT22;51654;51.452;6.644;2022-12-11T07:03:57;-0.60;80.50
65064;DHT22;51654;51.452;6.644;2022-12-11T07:06:24;-0.60;80.50
65064;DHT22;51654;51.452;6.644;2022-12-11T07:08:51;-0.60;80.60
65064;DHT22;51654;51.452;6.644;2022-12-11T07:11:19;-0.50;80.70
65064;DHT22;51654;51.452;6.644;2022-12-11T07:13:45;-0.50;80.80
65064;DHT22;51654;51.452;6.644;2022-12-11T07:16:13;-0.50;80.50
65064;DHT22;51654;51.452;6.644;2022-12-11T07:18:42;-0.50;80.40
65064;DHT22;51654;51.452;6.644;2022-12-11T07:21:12;-0.50;80.40
65064;DHT22;51654;51.452;6.644;2022-12-11T07:23:39;-0.40;80.50
65064;DHT22;51654;51.452;6.644;2022-12-11T07:26:07;-0.40;80.40
65064;DHT22;51654;51.452;6.644;2022-12-11T07:28:34;-0.40;80.20
65064;DHT22;51654;51.452;6.644;2022-12-11T07:31:07;-0.50;80.00
65064;DHT22;51654;51.452;6.644;2022-12-11T07:33:35;-0.50;79.90
65064;DHT22;51654;51.452;6.644;2022-12-11T07:36:05;-0.50;80.00
65064;DHT22;51654;51.452;6.644;2022-12-11T07:38:32;-0.50;80.00
65064;DHT22;51654;51.452;6.644;2022-12-11T07:41:17;-0.50;80.20
65064;DHT22;51654;51.452;6.644;2022-12-11T07:43:51;-0.50;79.90
65064;DHT22;51654;51.452;6.644;2022-12-11T07:46:19;-0.50;79.90
65064;DHT22;51654;51.452;6.644;2022-12-11T07:48:46;-0.60;79.90
65064;DHT22;51654;51.452;6.644;2022-12-11T07:53:43;-0.50;79.90
65064;DHT22;51654;51.452;6.644;2022-12-11T07:56:10;-0.50;80.00
65064;DHT22;51654;51.452;6.644;2022-12-11T07:58:37;-0.50;80.00
65064;DHT22;51654;51.452;6.644;2022-12-11T08:01:05;-0.40;79.80
65064;DHT22;51654;51.452;6.644;2022-12-11T08:03:32;-0.50;79.60
65064;DHT22;51654;51.452;6.644;2022-12-11T08:05:58;-0.50;79.60
65064;DHT22;51654;51.452;6.644;2022-12-11T08:08:25;-0.50;79.70
65064;DHT22;51654;51.452;6.644;2022-12-11T08:10:52;-0.50;79.60
65064;DHT22;51654;51.452;6.644;2022-12-11T08:13:19;-0.50;79.60
65064;DHT22;51654;51.452;6.644;2022-12-11T08:15:45;-0.40;79.60
65064;DHT22;51654;51.452;6.644;2022-12-11T08:18:12;-0.40;79.70
65064;DHT22;51654;51.452;6.644;2022-12-11T08:20:39;-0.30;79.80
65064;DHT22;51654;51.452;6.644;2022-12-11T08:23:06;-0.30;79.70
65064;DHT22;51654;51.452;6.644;2022-12-11T08:25:33;-0.30;79.40
65064;DHT22;51654;51.452;6.644;2022-12-11T08:28:00;-0.30;79.10
65064;DHT22;51654;51.452;6.644;2022-12-11T08:30:27;-0.30;79.10
65064;DHT22;51654;51.452;6.644;2022-12-11T08:32:54;-0.30;79.00
65064;DHT22;51654;51.452;6.644;2022-12-11T08:35:21;-0.30;78.90
65064;DHT22;51654;51.452;6.644;2022-12-11T08:37:47;-0.30;78.90
65064;DHT22;51654;51.452;6.644;2022-12-11T08:40:14;-0.30;78.70
65064;DHT22;51654;51.452;6.644;2022-12-11T08:42:41;-0.30;78.70
65064;DHT22;51654;51.452;6.644;2022-12-11T08:45:08;-0.30;78.60
65064;DHT22;51654;51.452;6.644;2022-12-11T08:47:35;-0.40;78.40
65064;DHT22;51654;51.452;6.644;2022-12-11T08:50:02;-0.40;78.30
65064;DHT22;51654;51.452;6.644;2022-12-11T08:52:29;-0.40;78.60
65064;DHT22;51654;51.452;6.644;2022-12-11T08:54:56;-0.40;78.60
65064;DHT22;51654;51.452;6.644;2022-12-11T08:57:23;-0.40;78.40
65064;DHT22;51654;51.452;6.644;2022-12-11T08:59:50;-0.40;78.40
65064;DHT22;51654;51.452;6.644;2022-12-11T09:02:17;-0.40;78.50
65064;DHT22;51654;51.452;6.644;2022-12-11T09:04:43;-0.40;78.50
65064;DHT22;51654;51.452;6.644;2022-12-11T09:07:10;-0.30;78.50
65064;DHT22;51654;51.452;6.644;2022-12-11T09:09:38;-0.30;78.30
65064;DHT22;51654;51.452;6.644;2022-12-11T09:12:05;-0.30;78.50
65064;DHT22;51654;51.452;6.644;2022-12-11T09:14:31;-0.20;78.40
65064;DHT22;51654;51.452;6.644;2022-12-11T09:16:58;-0.20;78.40
65064;DHT22;51654;51.452;6.644;2022-12-11T09:19:25;-0.20;78.20
65064;DHT22;51654;51.452;6.644;2022-12-11T09:21:57;-0.20;78.10
65064;DHT22;51654;51.452;6.644;2022-12-11T09:24:24;-0.20;78.10
65064;DHT22;51654;51.452;6.644;2022-12-11T09:26:51;-0.10;78.10
65064;DHT22;51654;51.452;6.644;2022-12-11T09:29:18;-0.10;78.20
65064;DHT22;51654;51.452;6.644;2022-12-11T09:31:44;-0.10;78.10
65064;DHT22;51654;51.452;6.644;2022-12-11T09:34:12;-0.10;77.70
65064;DHT22;51654;51.452;6.644;2022-12-11T09:36:39;0.00;77.40
65064;DHT22;51654;51.452;6.644;2022-12-11T09:39:07;-0.10;77.20
65064;DHT22;51654;51.452;6.644;2022-12-11T09:41:35;-0.10;76.80
65064;DHT22;51654;51.452;6.644;2022-12-11T09:44:12;-0.10;76.90
65064;DHT22;51654;51.452;6.644;2022-12-11T09:46:41;-0.10;77.00
65064;DHT22;51654;51.452;6.644;2022-12-11T09:49:30;0.00;77.00
65064;DHT22;51654;51.452;6.644;2022-12-11T09:54:31;0.10;76.70
65064;DHT22;51654;51.452;6.644;2022-12-11T09:57:01;0.20;76.50
65064;DHT22;51654;51.452;6.644;2022-12-11T09:59:32;0.20;76.20
65064;DHT22;51654;51.452;6.644;2022-12-11T10:02:17;0.20;76.00
65064;DHT22;51654;51.452;6.644;2022-12-11T10:10:05;0.30;75.40
65064;DHT22;51654;51.452;6.644;2022-12-11T10:17:38;0.30;74.70
65064;DHT22;51654;51.452;6.644;2022-12-11T10:22:48;0.40;74.70
65064;DHT22;51654;51.452;6.644;2022-12-11T10:25:20;0.40;74.80
65064;DHT22;51654;51.452;6.644;2022-12-11T10:27:47;0.50;74.60
65064;DHT22;51654;51.452;6.644;2022-12-11T10:30:16;0.50;74.50
65064;DHT22;51654;51.452;6.644;2022-12-11T10:35:16;0.50;74.50
65064;DHT22;51654;51.452;6.644;2022-12-11T10:37:43;0.50;73.90
65064;DHT22;51654;51.452;6.644;2022-12-11T10:40:11;0.50;73.80
65064;DHT22;51654;51.452;6.644;2022-12-11T10:42:37;0.50;73.60
65064;DHT22;51654;51.452;6.644;2022-12-11T10:45:14;0.50;73.40
65064;DHT22;51654;51.452;6.644;2022-12-11T10:47:41;0.40;73.30
65064;DHT22;51654;51.452;6.644;2022-12-11T10:50:20;0.40;73.30
65064;DHT22;51654;51.452;6.644;2022-12-11T10:52:47;0.40;73.40
65064;DHT22;51654;51.452;6.644;2022-12-11T10:57:54;0.40;73.40
65064;DHT22;51654;51.452;6.644;2022-12-11T11:00:39;0.40;73.30
65064;DHT22;51654;51.452;6.644;2022-12-11T11:03:18;0.40;73.00
65064;DHT22;51654;51.452;6.644;2022-12-11T11:05:45;0.40;73.20
65064;DHT22;51654;51.452;6.644;2022-12-11T11:08:19;0.30;73.20
65064;DHT22;51654;51.452;6.644;2022-12-11T11:10:54;0.30;73.20
65064;DHT22;51654;51.452;6.644;2022-12-11T11:13:23;0.30;72.90
65064;DHT22;51654;51.452;6.644;2022-12-11T11:16:11;0.20;73.00
65064;DHT22;51654;51.452;6.644;2022-12-11T11:18:38;0.20;73.30
65064;DHT22;51654;51.452;6.644;2022-12-11T11:21:06;0.20;73.40
65064;DHT22;51654;51.452;6.644;2022-12-11T11:23:40;0.40;73.70
65064;DHT22;51654;51.452;6.644;2022-12-11T11:26:13;0.40;73.90
65064;DHT22;51654;51.452;6.644;2022-12-11T11:28:41;0.60;74.00
65064;DHT22;51654;51.452;6.644;2022-12-11T11:31:13;0.60;73.70
65064;DHT22;51654;51.452;6.644;2022-12-11T11:36:26;0.60;73.10
65064;DHT22;51654;51.452;6.644;2022-12-11T11:41:44;0.40;72.50
65064;DHT22;51654;51.452;6.644;2022-12-11T11:44:14;0.40;72.80
65064;DHT22;51654;51.452;6.644;2022-12-11T11:46:58;0.40;73.00
65064;DHT22;51654;51.452;6.644;2022-12-11T11:52:16;0.50;73.20
65064;DHT22;51654;51.452;6.644;2022-12-11T11:59:55;0.60;72.90
65064;DHT22;51654;51.452;6.644;2022-12-11T12:02:23;0.60;72.90
65064;DHT22;51654;51.452;6.644;2022-12-11T12:04:50;0.70;72.80
65064;DHT22;51654;51.452;6.644;2022-12-11T12:07:25;0.70;73.30
65064;DHT22;51654;51.452;6.644;2022-12-11T12:10:05;0.80;73.00
65064;DHT22;51654;51.452;6.644;2022-12-11T12:12:42;0.70;72.30
65064;DHT22;51654;51.452;6.644;2022-12-11T12:17:52;0.50;72.10
65064;DHT22;51654;51.452;6.644;2022-12-11T12:20:34;0.50;72.00
65064;DHT22;51654;51.452;6.644;2022-12-11T12:23:24;0.40;71.90
65064;DHT22;51654;51.452;6.644;2022-12-11T12:26:08;0.30;72.10
65064;DHT22;51654;51.452;6.644;2022-12-11T12:34:08;0.30;72.50
65064;DHT22;51654;51.452;6.644;2022-12-11T12:44:21;0.30;72.40
65064;DHT22;51654;51.452;6.644;2022-12-11T12:46:55;0.30;72.40
65064;DHT22;51654;51.452;6.644;2022-12-11T12:49:27;0.30;72.50
65064;DHT22;51654;51.452;6.644;2022-12-11T12:51:56;0.30;72.50
65064;DHT22;51654;51.452;6.644;2022-12-11T12:54:25;0.30;72.40
65064;DHT22;51654;51.452;6.644;2022-12-11T12:56:53;0.40;72.50
65064;DHT22;51654;51.452;6.644;2022-12-11T12:59:22;0.40;72.40
65064;DHT22;51654;51.452;6.644;2022-12-11T13:01:49;0.40;72.20
65064;DHT22;51654;51.452;6.644;2022-12-11T13:04:34;0.40;72.10
65064;DHT22;51654;51.452;6.644;2022-12-11T13:07:24;0.40;72.30
65064;DHT22;51654;51.452;6.644;2022-12-11T13:10:06;0.50;72.20
65064;DHT22;51654;51.452;6.644;2022-12-11T13:12:47;0.50;72.10
65064;DHT22;51654;51.452;6.644;2022-12-11T13:15:24;0.50;71.80
65064;DHT22;51654;51.452;6.644;2022-12-11T13:17:51;0.40;71.70
65064;DHT22;51654;51.452;6.644;2022-12-11T13:20:20;0.40;72.00
65064;DHT22;51654;51.452;6.644;2022-12-11T13:22:48;0.40;72.20
65064;DHT22;51654;51.452;6.644;2022-12-11T13:25:20;0.40;72.10
65064;DHT22;51654;51.452;6.644;2022-12-11T13:27:48;0.40;71.60
65064;DHT22;51654;51.452;6.644;2022-12-11T13:32:53;0.40;71.50
65064;DHT22;51654;51.452;6.644;2022-12-11T13:35:22;0.30;71.50
65064;DHT22;51654;51.452;6.644;2022-12-11T13:37:49;0.30;71.70
65064;DHT22;51654;51.452;6.644;2022-12-11T13:40:18;0.40;71.80
65064;DHT22;51654;51.452;6.644;2022-12-11T13:42:49;0.40;71.60
65064;DHT22;51654;51.452;6.644;2022-12-11T13:45:20;0.40;71.30
65064;DHT22;51654;51.452;6.644;2022-12-11T13:47:48;0.50;71.40
65064;DHT22;51654;51.452;6.644;2022-12-11T13:50:49;0.50;71.60
65064;DHT22;51654;51.452;6.644;2022-12-11T13:53:12;0.50;71.50
65064;DHT22;51654;51.452;6.644;2022-12-11T13:55:41;0.50;71.20
65064;DHT22;51654;51.452;6.644;2022-12-11T13:58:17;0.50;71.30
65064;DHT22;51654;51.452;6.644;2022-12-11T14:03:27;0.50;71.60
65064;DHT22;51654;51.452;6.644;2022-12-11T14:05:56;0.60;71.40
65064;DHT22;51654;51.452;6.644;2022-12-11T14:08:23;0.60;71.30
65064;DHT22;51654;51.452;6.644;2022-12-11T14:10:55;0.60;71.10
65064;DHT22;51654;51.452;6.644;2022-12-11T14:13:22;0.50;71.00
65064;DHT22;51654;51.452;6.644;2022-12-11T14:15:51;0.50;70.50
65064;DHT22;51654;51.452;6.644;2022-12-11T14:18:19;0.50;70.80
65064;DHT22;51654;51.452;6.644;2022-12-11T14:20:52;0.50;70.70
65064;DHT22;51654;51.452;6.644;2022-12-11T14:23:20;0.50;70.70
65064;DHT22;51654;51.452;6.644;2022-12-11T14:25:54;0.40;71.00
65064;DHT22;51654;51.452;6.644;2022-12-11T14:28:21;0.40;70.90
65064;DHT22;51654;51.452;6.644;2022-12-11T14:30:49;0.40;70.70
65064;DHT22;51654;51.452;6.644;2022-12-11T14:33:16;0.40;70.30
65064;DHT22;51654;51.452;6.644;2022-12-11T14:35:44;0.40;70.30
65064;DHT22;51654;51.452;6.644;2022-12-11T14:40:42;0.30;70.20
65064;DHT22;51654;51.452;6.644;2022-12-11T14:43:11;0.30;70.20
65064;DHT22;51654;51.452;6.644;2022-12-11T14:45:39;0.20;70.10
65064;DHT22;51654;51.452;6.644;2022-12-11T14:48:12;0.20;70.20
65064;DHT22;51654;51.452;6.644;2022-12-11T14:50:41;0.20;70.40
65064;DHT22;51654;51.452;6.644;2022-12-11T14:53:13;0.20;70.50
65064;DHT22;51654;51.452;6.644;2022-12-11T14:55:40;0.30;70.50
65064;DHT22;51654;51.452;6.644;2022-12-11T14:58:19;0.30;70.40
65064;DHT22;51654;51.452;6.644;2022-12-11T15:00:56;0.30;70.40
65064;DHT22;51654;51.452;6.644;2022-12-11T15:03:28;0.30;70.50
65064;DHT22;51654;51.452;6.644;2022-12-11T15:05:56;0.40;70.60
65064;DHT22;51654;51.452;6.644;2022-12-11T15:08:27;0.40;70.30
65064;DHT22;51654;51.452;6.644;2022-12-11T15:11:13;0.30;70.30
65064;DHT22;51654;51.452;6.644;2022-12-11T15:13:54;0.30;70.50
65064;DHT22;51654;51.452;6.644;2022-12-11T15:16:22;0.30;70.70
65064;DHT22;51654;51.452;6.644;2022-12-11T15:18:50;0.30;70.30
65064;DHT22;51654;51.452;6.644;2022-12-11T15:21:18;0.30;70.50
65064;DHT22;51654;51.452;6.644;2022-12-11T15:23:56;0.30;70.80
65064;DHT22;51654;51.452;6.644;2022-12-11T15:26:36;0.30;71.10
65064;DHT22;51654;51.452;6.644;2022-12-11T15:29:05;0.40;71.60
65064;DHT22;51654;51.452;6.644;2022-12-11T15:31:32;0.50;71.60
65064;DHT22;51654;51.452;6.644;2022-12-11T15:34:00;0.50;71.50
65064;DHT22;51654;51.452;6.644;2022-12-11T15:36:31;0.50;71.20
65064;DHT22;51654;51.452;6.644;2022-12-11T15:39:00;0.50;71.00
65064;DHT22;51654;51.452;6.644;2022-12-11T15:41:27;0.40;71.10
65064;DHT22;51654;51.452;6.644;2022-12-11T15:43:59;0.40;71.30
65064;DHT22;51654;51.452;6.644;2022-12-11T15:46:26;0.50;71.30
65064;DHT22;51654;51.452;6.644;2022-12-11T15:48:54;0.50;71.30
65064;DHT22;51654;51.452;6.644;2022-12-11T15:51:21;0.50;71.20
65064;DHT22;51654;51.452;6.644;2022-12-11T15:53:48;0.50;71.30
65064;DHT22;51654;51.452;6.644;2022-12-11T15:56:15;0.50;71.20
65064;DHT22;51654;51.452;6.644;2022-12-11T15:58:45;0.50;70.90
65064;DHT22;51654;51.452;6.644;2022-12-11T16:01:12;0.40;70.80
65064;DHT22;51654;51.452;6.644;2022-12-11T16:03:39;0.50;70.90
65064;DHT22;51654;51.452;6.644;2022-12-11T16:06:08;0.50;71.00
65064;DHT22;51654;51.452;6.644;2022-12-11T16:08:36;0.50;70.90
65064;DHT22;51654;51.452;6.644;2022-12-11T16:11:02;0.50;70.90
65064;DHT22;51654;51.452;6.644;2022-12-11T16:13:29;0.50;70.70
65064;DHT22;51654;51.452;6.644;2022-12-11T16:15:56;0.40;70.50
65064;DHT22;51654;51.452;6.644;2022-12-11T16:18:24;0.40;70.60
65064;DHT22;51654;51.452;6.644;2022-12-11T16:20:51;0.50;70.50
65064;DHT22;51654;51.452;6.644;2022-12-11T16:23:18;0.50;70.50
65064;DHT22;51654;51.452;6.644;2022-12-11T16:25:48;0.50;70.40
65064;DHT22;51654;51.452;6.644;2022-12-11T16:28:16;0.40;70.40
65064;DHT22;51654;51.452;6.644;2022-12-11T16:30:43;0.40;70.30
65064;DHT22;51654;51.452;6.644;2022-12-11T16:33:10;0.50;70.50
65064;DHT22;51654;51.452;6.644;2022-12-11T16:35:39;0.50;70.30
65064;DHT22;51654;51.452;6.644;2022-12-11T16:38:06;0.50;70.00
65064;DHT22;51654;51.452;6.644;2022-12-11T16:40:33;0.40;69.90
65064;DHT22;51654;51.452;6.644;2022-12-11T16:43:01;0.50;69.90
65064;DHT22;51654;51.452;6.644;2022-12-11T16:45:28;0.40;69.90
65064;DHT22;51654;51.452;6.644;2022-12-11T16:47:55;0.40;69.80
65064;DHT22;51654;51.452;6.644;2022-12-11T16:50:21;0.40;69.70
65064;DHT22;51654;51.452;6.644;2022-12-11T16:52:49;0.40;69.90
65064;DHT22;51654;51.452;6.644;2022-12-11T16:55:15;0.40;70.10
65064;DHT22;51654;51.452;6.644;2022-12-11T16:57:46;0.40;70.10
65064;DHT22;51654;51.452;6.644;2022-12-11T17:00:13;0.40;70.10
65064;DHT22;51654;51.452;6.644;2022-12-11T17:02:41;0.40;70.10
65064;DHT22;51654;51.452;6.644;2022-12-11T17:05:08;0.40;70.40
65064;DHT22;51654;51.452;6.644;2022-12-11T17:07:36;0.40;70.50
65064;DHT22;51654;51.452;6.644;2022-12-11T17:10:03;0.40;70.30